sensor_id;sensor_type;location;lat;lon;timestamp;pressure;altitude;pressure_sealevel;temperature;humidity
79589;BME280;69067;51.930;4.492;2023-07-29T00:02:08;100675.38;;;26.10;47.74
79589;BME280;69067;51.930;4.492;2023-07-29T00:04:34;100683.78;;;26.08;48.21
79589;BME280;69067;51.930;4.492;2023-07-29T00:06:59;100680.59;;;26.11;47.70
79589;BME280;69067;51.930;4.492;2023-07-29T00:09:25;100671.09;;;26.14;48.42
79589;BME280;69067;51.930;4.492;2023-07-29T00:11:51;100667.31;;;26.15;47.97
79589;BME280;69067;51.930;4.492;2023-07-29T00:14:18;100664.75;;;26.20;47.62
79589;BME280;69067;51.930;4.492;2023-07-29T00:16:43;100670.22;;;26.20;48.39
79589;BME280;69067;51.930;4.492;2023-07-29T00:19:09;100670.56;;;26.23;48.29
79589;BME280;69067;51.930;4.492;2023-07-29T00:21:35;100667.69;;;26.18;48.44
79589;BME280;69067;51.930;4.492;2023-07-29T00:24:01;100669.59;;;26.18;47.72
79589;BME280;69067;51.930;4.492;2023-07-29T00:26:27;100667.94;;;26.17;48.13
79589;BME280;69067;51.930;4.492;2023-07-29T00:28:58;100666.47;;;26.14;48.18
79589;BME280;69067;51.930;4.492;2023-07-29T00:31:24;100662.34;;;26.12;48.12
79589;BME280;69067;51.930;4.492;2023-07-29T00:33:49;100657.47;;;26.14;48.38
79589;BME280;69067;51.930;4.492;2023-07-29T00:36:15;100654.50;;;26.15;48.27
79589;BME280;69067;51.930;4.492;2023-07-29T00:38:41;100667.31;;;26.15;48.18
79589;BME280;69067;51.930;4.492;2023-07-29T00:41:06;100653.44;;;26.16;48.10
79589;BME280;69067;51.930;4.492;2023-07-29T00:43:33;100661.03;;;26.14;48.02
79589;BME280;69067;51.930;4.492;2023-07-29T00:45:59;100659.38;;;26.13;48.08
79589;BME280;69067;51.930;4.492;2023-07-29T00:48:26;100661.41;;;26.18;48.42
79589;BME280;69067;51.930;4.492;2023-07-29T00:50:54;100656.78;;;26.18;48.51
79589;BME280;69067;51.930;4.492;2023-07-29T00:53:20;100661.19;;;26.19;47.98
79589;BME280;69067;51.930;4.492;2023-07-29T00:55:46;100652.38;;;26.17;48.07
79589;BME280;69067;51.930;4.492;2023-07-29T00:58:12;100651.63;;;26.10;48.31
79589;BME280;69067;51.930;4.492;2023-07-29T01:00:38;100657.00;;;26.17;48.74
79589;BME280;69067;51.930;4.492;2023-07-29T01:03:04;100655.47;;;26.21;47.79
79589;BME280;69067;51.930;4.492;2023-07-29T01:05:39;100653.84;;;26.20;48.30
79589;BME280;69067;51.930;4.492;2023-07-29T01:08:22;100660.13;;;26.20;48.54
79589;BME280;69067;51.930;4.492;2023-07-29T01:17:04;100645.88;;;26.18;47.96
79589;BME280;69067;51.930;4.492;2023-07-29T01:22:23;100635.41;;;26.15;48.61
79589;BME280;69067;51.930;4.492;2023-07-29T01:24:49;100631.25;;;26.13;48.54
79589;BME280;69067;51.930;4.492;2023-07-29T01:27:15;100628.25;;;26.14;48.20
79589;BME280;69067;51.930;4.492;2023-07-29T01:29:41;100644.41;;;26.16;47.97
79589;BME280;69067;51.930;4.492;2023-07-29T01:35:33;100635.88;;;26.12;48.31
79589;BME280;69067;51.930;4.492;2023-07-29T01:38:09;100632.53;;;26.10;47.84
79589;BME280;69067;51.930;4.492;2023-07-29T01:40:40;100624.97;;;26.12;48.08
79589;BME280;69067;51.930;4.492;2023-07-29T01:43:08;100627.44;;;26.14;47.85
79589;BME280;69067;51.930;4.492;2023-07-29T01:45:34;100625.53;;;26.14;48.09
79589;BME280;69067;51.930;4.492;2023-07-29T01:48:07;100631.25;;;26.13;47.47
79589;BME280;69067;51.930;4.492;2023-07-29T01:50:33;100630.41;;;26.12;48.14
79589;BME280;69067;51.930;4.492;2023-07-29T01:53:00;100623.28;;;26.11;48.06
79589;BME280;69067;51.930;4.492;2023-07-29T01:55:26;100617.22;;;26.09;48.09
79589;BME280;69067;51.930;4.492;2023-07-29T01:57:52;100618.66;;;26.12;47.94
79589;BME280;69067;51.930;4.492;2023-07-29T02:00:18;100615.53;;;26.08;48.42
79589;BME280;69067;51.930;4.492;2023-07-29T02:02:44;100616.16;;;26.10;47.29
79589;BME280;69067;51.930;4.492;2023-07-29T02:05:10;100622.44;;;26.11;48.40
79589;BME280;69067;51.930;4.492;2023-07-29T02:07:36;100619.34;;;26.07;47.67
79589;BME280;69067;51.930;4.492;2023-07-29T02:10:02;100617.44;;;26.08;47.86
79589;BME280;69067;51.930;4.492;2023-07-29T02:12:28;100611.75;;;26.09;47.42
79589;BME280;69067;51.930;4.492;2023-07-29T02:14:53;100613.56;;;26.15;47.52
79589;BME280;69067;51.930;4.492;2023-07-29T02:17:19;100608.41;;;26.07;47.86
79589;BME280;69067;51.930;4.492;2023-07-29T02:19:45;100596.75;;;26.00;47.91
79589;BME280;69067;51.930;4.492;2023-07-29T02:22:13;100598.59;;;26.06;47.83
79589;BME280;69067;51.930;4.492;2023-07-29T02:24:40;100592.03;;;26.07;47.07
79589;BME280;69067;51.930;4.492;2023-07-29T02:27:06;100593.13;;;26.06;47.34
79589;BME280;69067;51.930;4.492;2023-07-29T02:29:32;100601.06;;;26.08;47.55
79589;BME280;69067;51.930;4.492;2023-07-29T02:31:59;100589.19;;;26.02;47.71
79589;BME280;69067;51.930;4.492;2023-07-29T02:34:25;100589.31;;;26.07;47.67
79589;BME280;69067;51.930;4.492;2023-07-29T02:36:51;100578.66;;;26.06;47.88
79589;BME280;69067;51.930;4.492;2023-07-29T02:39:16;100575.00;;;26.12;46.87
79589;BME280;69067;51.930;4.492;2023-07-29T02:41:42;100578.41;;;26.07;47.53
79589;BME280;69067;51.930;4.492;2023-07-29T02:44:08;100575.94;;;26.06;47.78
79589;BME280;69067;51.930;4.492;2023-07-29T02:46:34;100574.63;;;26.08;47.16
79589;BME280;69067;51.930;4.492;2023-07-29T02:49:01;100579.00;;;26.09;47.34
79589;BME280;69067;51.930;4.492;2023-07-29T02:51:28;100578.03;;;26.04;47.80
79589;BME280;69067;51.930;4.492;2023-07-29T02:53:54;100578.03;;;26.04;47.15
79589;BME280;69067;51.930;4.492;2023-07-29T02:56:19;100586.38;;;26.09;47.04
79589;BME280;69067;51.930;4.492;2023-07-29T02:58:45;100594.78;;;26.07;47.53
79589;BME280;69067;51.930;4.492;2023-07-29T03:01:11;100588.25;;;26.08;46.93
79589;BME280;69067;51.930;4.492;2023-07-29T03:03:37;100590.75;;;26.10;47.71
79589;BME280;69067;51.930;4.492;2023-07-29T03:06:06;100593.13;;;26.06;47.07
79589;BME280;69067;51.930;4.492;2023-07-29T03:08:33;100608.69;;;26.06;47.99
79589;BME280;69067;51.930;4.492;2023-07-29T03:11:06;100595.25;;;26.04;47.64
79589;BME280;69067;51.930;4.492;2023-07-29T03:13:33;100592.31;;;26.06;47.62
79589;BME280;69067;51.930;4.492;2023-07-29T03:18:32;100588.97;;;26.04;47.39
79589;BME280;69067;51.930;4.492;2023-07-29T03:20:57;100584.78;;;26.01;47.82
79589;BME280;69067;51.930;4.492;2023-07-29T03:23:23;100586.47;;;26.02;47.96
79589;BME280;69067;51.930;4.492;2023-07-29T03:25:49;100585.63;;;26.02;47.75
79589;BME280;69067;51.930;4.492;2023-07-29T03:28:17;100598.59;;;26.06;46.98
79589;BME280;69067;51.930;4.492;2023-07-29T03:30:42;100594.03;;;26.00;47.90
79589;BME280;69067;51.930;4.492;2023-07-29T03:33:08;100604.50;;;26.03;47.12
79589;BME280;69067;51.930;4.492;2023-07-29T03:35:34;100599.75;;;25.99;47.75
79589;BME280;69067;51.930;4.492;2023-07-29T03:38:00;100605.56;;;26.02;47.27
79589;BME280;69067;51.930;4.492;2023-07-29T03:40:25;100603.66;;;26.03;47.62
79589;BME280;69067;51.930;4.492;2023-07-29T03:42:51;100594.94;;;25.94;47.17
79589;BME280;69067;51.930;4.492;2023-07-29T03:45:18;100602.47;;;25.99;47.16
79589;BME280;69067;51.930;4.492;2023-07-29T03:47:43;100597.94;;;25.93;47.52
79589;BME280;69067;51.930;4.492;2023-07-29T03:50:09;100589.50;;;25.94;47.08
79589;BME280;69067;51.930;4.492;2023-07-29T03:52:35;100585.25;;;25.98;46.67
79589;BME280;69067;51.930;4.492;2023-07-29T03:55:01;100599.50;;;26.00;47.65
79589;BME280;69067;51.930;4.492;2023-07-29T03:57:26;100600.06;;;25.91;47.48
79589;BME280;69067;51.930;4.492;2023-07-29T03:59:54;100601.50;;;25.93;46.93
79589;BME280;69067;51.930;4.492;2023-07-29T04:02:20;100599.13;;;25.97;47.36
79589;BME280;69067;51.930;4.492;2023-07-29T04:04:45;100588.31;;;25.90;47.45
79589;BME280;69067;51.930;4.492;2023-07-29T04:07:13;100588.91;;;25.92;47.73
79589;BME280;69067;51.930;4.492;2023-07-29T04:09:39;100585.13;;;25.93;47.76
79589;BME280;69067;51.930;4.492;2023-07-29T04:12:06;100597.00;;;25.99;47.65
79589;BME280;69067;51.930;4.492;2023-07-29T04:14:32;100596.19;;;25.98;47.99
79589;BME280;69067;51.930;4.492;2023-07-29T04:16:57;100603.84;;;25.89;47.65
79589;BME280;69067;51.930;4.492;2023-07-29T04:19:23;100602.56;;;25.92;47.52
79589;BME280;69067;51.930;4.492;2023-07-29T04:21:49;100598.28;;;25.96;46.85
79589;BME280;69067;51.930;4.492;2023-07-29T04:24:16;100599.13;;;25.97;47.04
79589;BME280;69067;51.930;4.492;2023-07-29T04:26:41;100594.13;;;25.94;47.74
79589;BME280;69067;51.930;4.492;2023-07-29T04:29:07;100600.41;;;25.94;47.68
79589;BME280;69067;51.930;4.492;2023-07-29T04:31:33;100595.56;;;25.96;48.00
79589;BME280;69067;51.930;4.492;2023-07-29T04:33:59;100595.13;;;25.99;47.25
79589;BME280;69067;51.930;4.492;2023-07-29T04:36:25;100600.19;;;25.96;46.99
79589;BME280;69067;51.930;4.492;2023-07-29T04:38:50;100601.50;;;25.93;47.46
79589;BME280;69067;51.930;4.492;2023-07-29T04:41:16;100620.13;;;25.96;47.64
79589;BME280;69067;51.930;4.492;2023-07-29T04:43:42;100621.41;;;25.94;47.29
79589;BME280;69067;51.930;4.492;2023-07-29T04:46:08;100617.69;;;25.88;47.26
79589;BME280;69067;51.930;4.492;2023-07-29T04:48:34;100606.22;;;25.86;47.40
79589;BME280;69067;51.930;4.492;2023-07-29T04:50:59;100601.06;;;25.78;47.82
79589;BME280;69067;51.930;4.492;2023-07-29T04:53:25;100620.66;;;25.86;47.25
79589;BME280;69067;51.930;4.492;2023-07-29T04:55:51;100607.63;;;25.88;48.10
79589;BME280;69067;51.930;4.492;2023-07-29T04:58:17;100610.56;;;25.87;47.59
79589;BME280;69067;51.930;4.492;2023-07-29T05:00:42;100603.84;;;25.89;47.71
79589;BME280;69067;51.930;4.492;2023-07-29T05:03:08;100613.91;;;25.89;47.48
79589;BME280;69067;51.930;4.492;2023-07-29T05:05:34;100606.22;;;25.86;47.34
79589;BME280;69067;51.930;4.492;2023-07-29T05:08:00;100610.13;;;25.90;47.37
79589;BME280;69067;51.930;4.492;2023-07-29T05:10:25;100600.59;;;25.81;47.25
79589;BME280;69067;51.930;4.492;2023-07-29T05:12:51;100607.25;;;25.85;47.22
79589;BME280;69067;51.930;4.492;2023-07-29T05:15:17;100608.94;;;25.86;47.14
79589;BME280;69067;51.930;4.492;2023-07-29T05:17:44;100598.47;;;25.83;47.79
79589;BME280;69067;51.930;4.492;2023-07-29T05:20:10;100595.53;;;25.84;47.36
79589;BME280;69067;51.930;4.492;2023-07-29T05:22:35;100595.97;;;25.81;47.45
79589;BME280;69067;51.930;4.492;2023-07-29T05:25:01;100589.09;;;25.79;47.87
79589;BME280;69067;51.930;4.492;2023-07-29T05:27:27;100589.09;;;25.79;47.83
79589;BME280;69067;51.930;4.492;2023-07-29T05:29:52;100593.00;;;25.83;47.24
79589;BME280;69067;51.930;4.492;2023-07-29T05:32:18;100595.53;;;25.84;47.50
79589;BME280;69067;51.930;4.492;2023-07-29T05:34:44;100591.13;;;25.83;47.04
79589;BME280;69067;51.930;4.492;2023-07-29T05:37:10;100582.19;;;25.76;47.78
79589;BME280;69067;51.930;4.492;2023-07-29T05:39:35;100590.91;;;25.85;47.50
79589;BME280;69067;51.930;4.492;2023-07-29T05:42:02;100585.44;;;25.85;48.13
79589;BME280;69067;51.930;4.492;2023-07-29T05:44:29;100596.34;;;25.85;47.45
79589;BME280;69067;51.930;4.492;2023-07-29T05:46:57;100596.81;;;25.82;47.21
79589;BME280;69067;51.930;4.492;2023-07-29T05:49:23;100608.19;;;25.79;47.78
79589;BME280;69067;51.930;4.492;2023-07-29T05:51:49;100604.00;;;25.76;47.87
79589;BME280;69067;51.930;4.492;2023-07-29T05:54:17;100605.91;;;25.76;47.75
79589;BME280;69067;51.930;4.492;2023-07-29T05:56:43;100620.28;;;25.83;47.39
79589;BME280;69067;51.930;4.492;2023-07-29T05:59:09;100610.28;;;25.77;47.63
79589;BME280;69067;51.930;4.492;2023-07-29T06:01:35;100619.91;;;25.79;47.60
79589;BME280;69067;51.930;4.492;2023-07-29T06:04:01;100615.75;;;25.77;48.27
79589;BME280;69067;51.930;4.492;2023-07-29T06:06:28;100621.97;;;25.84;47.82
79589;BME280;69067;51.930;4.492;2023-07-29T06:08:54;100611.34;;;25.76;48.02
79589;BME280;69067;51.930;4.492;2023-07-29T06:11:20;100606.97;;;25.75;47.62
79589;BME280;69067;51.930;4.492;2023-07-29T06:13:47;100619.69;;;25.81;47.96
79589;BME280;69067;51.930;4.492;2023-07-29T06:16:14;100614.22;;;25.81;48.14
79589;BME280;69067;51.930;4.492;2023-07-29T06:18:40;100617.44;;;25.78;48.10
79589;BME280;69067;51.930;4.492;2023-07-29T06:21:05;100620.38;;;25.76;48.32
79589;BME280;69067;51.930;4.492;2023-07-29T06:23:34;100612.56;;;25.80;47.75
79589;BME280;69067;51.930;4.492;2023-07-29T06:25:59;100612.25;;;25.88;48.25
79589;BME280;69067;51.930;4.492;2023-07-29T06:28:26;100620.59;;;25.93;48.13
79589;BME280;69067;51.930;4.492;2023-07-29T06:30:52;100614.31;;;25.93;47.76
79589;BME280;69067;51.930;4.492;2023-07-29T06:33:18;100618.88;;;26.10;46.94
79589;BME280;69067;51.930;4.492;2023-07-29T06:35:44;100618.59;;;26.00;47.86
79589;BME280;69067;51.930;4.492;2023-07-29T06:38:10;100616.94;;;25.99;47.60
79589;BME280;69067;51.930;4.492;2023-07-29T06:40:35;100616.41;;;25.91;48.28
79589;BME280;69067;51.930;4.492;2023-07-29T06:43:01;100605.88;;;25.94;47.54
79589;BME280;69067;51.930;4.492;2023-07-29T06:45:27;100614.66;;;25.96;47.61
79589;BME280;69067;51.930;4.492;2023-07-29T06:47:53;100626.41;;;25.97;47.79
79589;BME280;69067;51.930;4.492;2023-07-29T06:50:19;100610.97;;;25.91;47.60
79589;BME280;69067;51.930;4.492;2023-07-29T06:52:45;100617.69;;;25.88;47.53
79589;BME280;69067;51.930;4.492;2023-07-29T06:55:11;100610.13;;;25.90;47.78
79589;BME280;69067;51.930;4.492;2023-07-29T06:57:37;100624.22;;;25.87;48.34
79589;BME280;69067;51.930;4.492;2023-07-29T07:00:03;100621.66;;;25.92;48.06
79589;BME280;69067;51.930;4.492;2023-07-29T07:02:29;100621.72;;;26.04;48.01
79589;BME280;69067;51.930;4.492;2023-07-29T07:04:55;100606.88;;;26.00;47.66
79589;BME280;69067;51.930;4.492;2023-07-29T07:07:21;100627.59;;;26.01;47.54
79589;BME280;69067;51.930;4.492;2023-07-29T07:09:47;100614.22;;;25.99;47.19
79589;BME280;69067;51.930;4.492;2023-07-29T07:12:12;100622.09;;;25.89;47.93
79589;BME280;69067;51.930;4.492;2023-07-29T07:14:38;100617.53;;;26.01;47.75
79589;BME280;69067;51.930;4.492;2023-07-29T07:17:04;100625.88;;;25.88;47.82
79589;BME280;69067;51.930;4.492;2023-07-29T07:19:30;100618.00;;;25.80;47.96
79589;BME280;69067;51.930;4.492;2023-07-29T07:21:56;100627.41;;;25.84;47.97
79589;BME280;69067;51.930;4.492;2023-07-29T07:24:21;100631.66;;;25.80;47.67
79589;BME280;69067;51.930;4.492;2023-07-29T07:26:47;100634.91;;;25.88;47.89
79589;BME280;69067;51.930;4.492;2023-07-29T07:29:13;100625.13;;;25.81;48.21
79589;BME280;69067;51.930;4.492;2023-07-29T07:31:39;100643.16;;;25.82;48.05
79589;BME280;69067;51.930;4.492;2023-07-29T07:34:04;100628.25;;;25.84;47.99
79589;BME280;69067;51.930;4.492;2023-07-29T07:36:31;100634.53;;;25.85;47.90
79589;BME280;69067;51.930;4.492;2023-07-29T07:38:57;100631.34;;;25.88;48.58
79589;BME280;69067;51.930;4.492;2023-07-29T07:41:23;100637.09;;;25.80;48.42
79589;BME280;69067;51.930;4.492;2023-07-29T07:43:49;100643.56;;;25.85;47.94
79589;BME280;69067;51.930;4.492;2023-07-29T07:46:15;100646.88;;;25.87;48.21
79589;BME280;69067;51.930;4.492;2023-07-29T07:48:40;100640.38;;;25.88;47.61
79589;BME280;69067;51.930;4.492;2023-07-29T07:51:13;100643.41;;;25.99;47.70
79589;BME280;69067;51.930;4.492;2023-07-29T07:53:39;100648.41;;;25.83;47.67
79589;BME280;69067;51.930;4.492;2023-07-29T07:56:06;100647.19;;;25.79;48.23
79589;BME280;69067;51.930;4.492;2023-07-29T07:58:32;100642.34;;;25.81;47.81
79589;BME280;69067;51.930;4.492;2023-07-29T08:01:06;100635.69;;;25.77;48.25
79589;BME280;69067;51.930;4.492;2023-07-29T08:03:33;100651.34;;;25.82;48.44
79589;BME280;69067;51.930;4.492;2023-07-29T08:05:59;100648.63;;;25.82;48.27
79589;BME280;69067;51.930;4.492;2023-07-29T08:08:26;100645.69;;;25.83;47.72
79589;BME280;69067;51.930;4.492;2023-07-29T08:10:54;100663.03;;;25.89;48.30
79589;BME280;69067;51.930;4.492;2023-07-29T08:13:21;100657.72;;;25.94;47.27
79589;BME280;69067;51.930;4.492;2023-07-29T08:15:52;100666.66;;;26.01;47.21
79589;BME280;69067;51.930;4.492;2023-07-29T08:18:19;100670.91;;;25.97;47.59
79589;BME280;69067;51.930;4.492;2023-07-29T08:20:55;100662.19;;;25.88;47.94
79589;BME280;69067;51.930;4.492;2023-07-29T08:23:30;100651.81;;;25.79;47.91
79589;BME280;69067;51.930;4.492;2023-07-29T08:25:58;100664.06;;;25.88;47.70
79589;BME280;69067;51.930;4.492;2023-07-29T08:28:38;100654.31;;;25.80;48.36
79589;BME280;69067;51.930;4.492;2023-07-29T08:31:05;100650.31;;;25.83;48.26
79589;BME280;69067;51.930;4.492;2023-07-29T08:33:32;100644.41;;;25.86;47.54
79589;BME280;69067;51.930;4.492;2023-07-29T08:36:02;100660.28;;;25.89;47.63
79589;BME280;69067;51.930;4.492;2023-07-29T08:38:28;100658.47;;;25.83;47.89
79589;BME280;69067;51.930;4.492;2023-07-29T08:41:06;100655.63;;;25.78;48.22
79589;BME280;69067;51.930;4.492;2023-07-29T08:44:16;100664.69;;;25.90;48.02
79589;BME280;69067;51.930;4.492;2023-07-29T08:46:44;100660.22;;;25.96;47.89
79589;BME280;69067;51.930;4.492;2023-07-29T08:49:12;100660.22;;;25.96;48.10
79589;BME280;69067;51.930;4.492;2023-07-29T08:51:41;100665.38;;;26.04;47.41
79589;BME280;69067;51.930;4.492;2023-07-29T08:54:09;100652.25;;;25.94;47.33
79589;BME280;69067;51.930;4.492;2023-07-29T08:56:36;100653.47;;;25.98;47.22
79589;BME280;69067;51.930;4.492;2023-07-29T08:59:03;100651.50;;;25.87;47.80
79589;BME280;69067;51.930;4.492;2023-07-29T09:01:30;100665.91;;;25.94;47.92
79589;BME280;69067;51.930;4.492;2023-07-29T09:03:56;100654.97;;;25.94;47.44
79589;BME280;69067;51.930;4.492;2023-07-29T09:06:23;100666.38;;;25.91;47.80
79589;BME280;69067;51.930;4.492;2023-07-29T09:08:53;100672.81;;;25.97;47.72
79589;BME280;69067;51.930;4.492;2023-07-29T09:11:23;100664.25;;;25.93;47.66
79589;BME280;69067;51.930;4.492;2023-07-29T09:13:48;100654.22;;;25.87;47.33
79589;BME280;69067;51.930;4.492;2023-07-29T09:16:14;100672.66;;;25.92;47.00
79589;BME280;69067;51.930;4.492;2023-07-29T09:18:40;100673.50;;;25.92;47.27
79589;BME280;69067;51.930;4.492;2023-07-29T09:21:06;100671.34;;;25.94;47.81
79589;BME280;69067;51.930;4.492;2023-07-29T09:23:40;100671.44;;;25.87;47.57
79589;BME280;69067;51.930;4.492;2023-07-29T09:26:07;100674.69;;;25.96;46.79
79589;BME280;69067;51.930;4.492;2023-07-29T09:28:40;100668.03;;;25.92;47.16
79589;BME280;69067;51.930;4.492;2023-07-29T09:31:06;100672.09;;;26.01;47.09
79589;BME280;69067;51.930;4.492;2023-07-29T09:33:35;100671.81;;;25.91;47.78
79589;BME280;69067;51.930;4.492;2023-07-29T09:36:08;100677.91;;;25.93;47.74
79589;BME280;69067;51.930;4.492;2023-07-29T09:38:36;100672.13;;;25.83;47.63
79589;BME280;69067;51.930;4.492;2023-07-29T09:41:02;100666.38;;;25.91;47.89
79589;BME280;69067;51.930;4.492;2023-07-29T09:43:34;100665.97;;;25.87;48.21
79589;BME280;69067;51.930;4.492;2023-07-29T09:46:04;100672.97;;;25.83;48.28
79589;BME280;69067;51.930;4.492;2023-07-29T09:48:37;100668.94;;;25.86;47.86
79589;BME280;69067;51.930;4.492;2023-07-29T09:51:14;100661.53;;;25.93;47.84
79589;BME280;69067;51.930;4.492;2023-07-29T09:53:43;100651.75;;;25.85;47.87
79589;BME280;69067;51.930;4.492;2023-07-29T09:56:12;100662.25;;;25.82;48.28
79589;BME280;69067;51.930;4.492;2023-07-29T09:58:38;100671.75;;;25.98;47.98
79589;BME280;69067;51.930;4.492;2023-07-29T10:01:08;100664.78;;;25.83;48.44
79589;BME280;69067;51.930;4.492;2023-07-29T10:03:35;100671.06;;;25.84;48.23
79589;BME280;69067;51.930;4.492;2023-07-29T10:06:03;100674.41;;;25.86;48.29
79589;BME280;69067;51.930;4.492;2023-07-29T10:08:31;100685.53;;;25.84;48.43
79589;BME280;69067;51.930;4.492;2023-07-29T10:11:07;100686.19;;;25.80;48.05
79589;BME280;69067;51.930;4.492;2023-07-29T10:13:34;100689.03;;;25.92;48.51
79589;BME280;69067;51.930;4.492;2023-07-29T10:16:01;100694.19;;;26.00;47.41
79589;BME280;69067;51.930;4.492;2023-07-29T10:18:30;100693.09;;;25.82;47.69
79589;BME280;69067;51.930;4.492;2023-07-29T10:20:58;100696.06;;;25.81;48.87
79589;BME280;69067;51.930;4.492;2023-07-29T10:23:26;100686.97;;;25.87;48.53
79589;BME280;69067;51.930;4.492;2023-07-29T10:26:04;100692.06;;;25.83;48.12
79589;BME280;69067;51.930;4.492;2023-07-29T10:28:32;100690.38;;;25.82;48.21
79589;BME280;69067;51.930;4.492;2023-07-29T10:31:00;100683.88;;;25.83;48.61
79589;BME280;69067;51.930;4.492;2023-07-29T10:33:26;100687.50;;;25.96;48.52
79589;BME280;69067;51.930;4.492;2023-07-29T10:35:53;100692.28;;;25.82;49.44
79589;BME280;69067;51.930;4.492;2023-07-29T10:38:24;100709.25;;;25.84;49.25
79589;BME280;69067;51.930;4.492;2023-07-29T10:40:53;100695.84;;;25.82;48.94
79589;BME280;69067;51.930;4.492;2023-07-29T10:43:33;100690.78;;;25.86;48.52
79589;BME280;69067;51.930;4.492;2023-07-29T10:46:23;100699.84;;;25.80;49.06
79589;BME280;69067;51.930;4.492;2023-07-29T10:48:56;100694.63;;;25.78;48.69
79589;BME280;69067;51.930;4.492;2023-07-29T10:51:30;100699.00;;;25.79;49.16
79589;BME280;69067;51.930;4.492;2023-07-29T10:54:08;100693.31;;;25.81;49.13
79589;BME280;69067;51.930;4.492;2023-07-29T10:56:36;100685.63;;;25.78;48.65
79589;BME280;69067;51.930;4.492;2023-07-29T11:01:40;100685.38;;;25.79;49.34
79589;BME280;69067;51.930;4.492;2023-07-29T11:12:43;100668.47;;;25.89;49.04
79589;BME280;69067;51.930;4.492;2023-07-29T11:17:46;100682.75;;;25.91;49.59
79589;BME280;69067;51.930;4.492;2023-07-29T11:20:24;100669.00;;;25.79;49.46
79589;BME280;69067;51.930;4.492;2023-07-29T11:22:55;100677.56;;;25.83;49.28
79589;BME280;69067;51.930;4.492;2023-07-29T11:25:23;100663.09;;;25.82;49.90
79589;BME280;69067;51.930;4.492;2023-07-29T11:27:55;100677.91;;;25.93;49.26
79589;BME280;69067;51.930;4.492;2023-07-29T11:30:22;100681.44;;;25.94;49.57
79589;BME280;69067;51.930;4.492;2023-07-29T11:32:58;100671.00;;;25.91;49.41
79589;BME280;69067;51.930;4.492;2023-07-29T11:35:24;100683.66;;;25.85;49.62
79589;BME280;69067;51.930;4.492;2023-07-29T11:37:52;100677.13;;;25.86;49.88
79589;BME280;69067;51.930;4.492;2023-07-29T11:40:21;100672.13;;;25.83;49.77
79589;BME280;69067;51.930;4.492;2023-07-29T11:42:49;100670.22;;;25.83;49.77
79589;BME280;69067;51.930;4.492;2023-07-29T11:45:16;100683.03;;;25.83;49.95
79589;BME280;69067;51.930;4.492;2023-07-29T11:47:43;100679.38;;;25.89;50.06
79589;BME280;69067;51.930;4.492;2023-07-29T11:50:11;100686.53;;;25.90;49.69
79589;BME280;69067;51.930;4.492;2023-07-29T11:52:42;100693.66;;;25.91;49.77
79589;BME280;69067;51.930;4.492;2023-07-29T11:55:09;100689.75;;;25.80;50.04
79589;BME280;69067;51.930;4.492;2023-07-29T11:57:37;100682.75;;;25.91;49.86
79589;BME280;69067;51.930;4.492;2023-07-29T12:00:04;100690.31;;;25.89;49.69
79589;BME280;69067;51.930;4.492;2023-07-29T12:02:33;100687.78;;;25.87;49.79
79589;BME280;69067;51.930;4.492;2023-07-29T12:05:04;100692.19;;;25.88;49.22
79589;BME280;69067;51.930;4.492;2023-07-29T12:07:31;100689.25;;;25.90;49.98
79589;BME280;69067;51.930;4.492;2023-07-29T12:09:59;100678.34;;;25.90;49.46
79589;BME280;69067;51.930;4.492;2023-07-29T12:12:25;100672.25;;;25.88;49.20
79589;BME280;69067;51.930;4.492;2023-07-29T12:14:51;100674.16;;;25.87;49.98
79589;BME280;69067;51.930;4.492;2023-07-29T12:17:18;100682.75;;;25.91;49.29
79589;BME280;69067;51.930;4.492;2023-07-29T12:19:43;100678.63;;;25.82;49.62
79589;BME280;69067;51.930;4.492;2023-07-29T12:22:10;100670.59;;;25.87;49.61
79589;BME280;69067;51.930;4.492;2023-07-29T12:24:38;100674.44;;;25.79;49.56
79589;BME280;69067;51.930;4.492;2023-07-29T12:27:09;100669.31;;;25.89;50.06
79589;BME280;69067;51.930;4.492;2023-07-29T12:29:41;100675.81;;;25.88;49.66
79589;BME280;69067;51.930;4.492;2023-07-29T12:32:09;100686.59;;;25.83;49.31
79589;BME280;69067;51.930;4.492;2023-07-29T12:34:37;100673.09;;;25.88;49.49
79589;BME280;69067;51.930;4.492;2023-07-29T12:37:08;100671.97;;;25.78;49.94
79589;BME280;69067;51.930;4.492;2023-07-29T12:39:40;100676.75;;;25.82;49.63
79589;BME280;69067;51.930;4.492;2023-07-29T12:42:09;100667.94;;;25.80;49.87
79589;BME280;69067;51.930;4.492;2023-07-29T12:44:37;100662.75;;;25.79;50.09
79589;BME280;69067;51.930;4.492;2023-07-29T12:47:05;100657.72;;;25.76;50.36
79589;BME280;69067;51.930;4.492;2023-07-29T12:49:32;100654.38;;;25.74;49.97
79589;BME280;69067;51.930;4.492;2023-07-29T12:51:58;100674.72;;;25.78;49.69
79589;BME280;69067;51.930;4.492;2023-07-29T12:54:24;100680.16;;;25.78;50.14
79589;BME280;69067;51.930;4.492;2023-07-29T12:56:51;100662.13;;;25.77;49.52
79589;BME280;69067;51.930;4.492;2023-07-29T12:59:17;100681.84;;;25.79;49.44
79589;BME280;69067;51.930;4.492;2023-07-29T13:01:43;100660.06;;;25.91;49.29
79589;BME280;69067;51.930;4.492;2023-07-29T13:04:11;100673.94;;;25.89;49.06
79589;BME280;69067;51.930;4.492;2023-07-29T13:06:37;100686.53;;;25.90;49.04
79589;BME280;69067;51.930;4.492;2023-07-29T13:09:03;100678.56;;;25.88;48.93
79589;BME280;69067;51.930;4.492;2023-07-29T13:11:31;100667.28;;;25.85;48.65
79589;BME280;69067;51.930;4.492;2023-07-29T13:13:58;100673.94;;;25.89;49.25
79589;BME280;69067;51.930;4.492;2023-07-29T13:16:23;100669.41;;;25.83;48.39
79589;BME280;69067;51.930;4.492;2023-07-29T13:18:49;100669.22;;;25.96;48.32
79589;BME280;69067;51.930;4.492;2023-07-29T13:21:15;100674.41;;;25.86;48.21